Time;durP1;ratioP1;P1;durP2;ratioP2;P2;SDS_P1;SDS_P2;PMS_P1;PMS_P2;Temp;Humidity;BMP_temperature;BMP_pressure;BME280_temperature;BME280_humidity;BME280_pressure;Samples;Min_cycle;Max_cycle;Signal;HPM_P1;HPM_P2
2023/05/24 02:02:11;;;;;;;17.80;8.63;;;;;;;;;;4448448;27;20090;-71
2023/05/24 02:04:39;;;;;;;13.32;8.50;;;;;;;;;;4309167;33;20532;-71
2023/05/24 02:07:05;;;;;;;19.35;9.43;;;;;;;;;;4311121;33;20450;-71
2023/05/24 02:09:32;;;;;;;16.33;9.55;;;;;;;;;;4311030;33;20049;-72
2023/05/24 02:11:58;;;;;;;15.43;8.93;;;;;;;;;;4311051;33;20451;-73
2023/05/24 02:14:25;;;;;;;19.77;9.85;;;;;;;;;;4311399;33;20040;-73
2023/05/24 02:16:51;;;;;;;17.80;10.15;;;;;;;;;;4309110;33;20762;-72
2023/05/24 02:19:18;;;;;;;15.50;9.32;;;;;;;;;;4311467;33;20053;-73
2023/05/24 02:21:44;;;;;;;15.27;9.95;;;;;;;;;;4311287;33;20114;-73
2023/05/24 02:24:11;;;;;;;16.48;9.50;;;;;;;;;;4311035;33;20472;-73
2023/05/24 02:26:37;;;;;;;14.32;10.43;;;;;;;;;;4310566;33;20049;-73
2023/05/24 02:29:04;;;;;;;19.50;10.23;;;;;;;;;;4310055;33;20067;-73
2023/05/24 02:31:29;;;;;;;13.95;9.95;;;;;;;;;;4311045;33;20145;-73
2023/05/24 02:33:57;;;;;;;14.82;10.05;;;;;;;;;;4310886;33;20056;-73
2023/05/24 02:36:23;;;;;;;20.55;10.88;;;;;;;;;;4311014;33;20114;-73
2023/05/24 02:38:50;;;;;;;14.87;10.35;;;;;;;;;;4310829;33;20080;-73
2023/05/24 02:41:22;;;;;;;17.67;10.32;;;;;;;;;;4310417;33;20049;-73
2023/05/24 02:43:48;;;;;;;14.60;11.15;;;;;;;;;;4311024;33;20061;-73
2023/05/24 02:46:15;;;;;;;17.98;10.82;;;;;;;;;;4310878;33;20036;-73
2023/05/24 02:48:41;;;;;;;17.17;10.10;;;;;;;;;;4310859;33;20045;-72
2023/05/24 02:51:07;;;;;;;18.08;11.30;;;;;;;;;;4309567;33;20067;-70
2023/05/24 02:53:34;;;;;;;19.70;11.30;;;;;;;;;;4308178;33;20052;-73
2023/05/24 02:56:00;;;;;;;19.35;11.00;;;;;;;;;;4300549;33;20055;-74
2023/05/24 02:58:29;;;;;;;18.45;12.15;;;;;;;;;;4307981;33;20451;-73
2023/05/24 03:00:56;;;;;;;19.45;11.15;;;;;;;;;;4287855;33;20526;-71
2023/05/24 03:03:22;;;;;;;19.70;11.48;;;;;;;;;;4278449;33;20095;-73
2023/05/24 03:05:48;;;;;;;26.08;12.85;;;;;;;;;;4279461;33;20088;-72
2023/05/24 03:08:15;;;;;;;18.20;12.88;;;;;;;;;;4279262;33;20521;-72
2023/05/24 03:10:41;;;;;;;18.98;12.45;;;;;;;;;;4279174;33;20037;-72
2023/05/24 03:13:08;;;;;;;23.12;11.85;;;;;;;;;;4278093;33;20067;-69
2023/05/24 03:15:34;;;;;;;24.90;12.75;;;;;;;;;;4278599;33;20075;-73
2023/05/24 03:18:01;;;;;;;19.65;12.85;;;;;;;;;;4285467;33;20050;-72
2023/05/24 03:20:27;;;;;;;16.65;12.02;;;;;;;;;;4294582;33;21516;-72
2023/05/24 03:22:53;;;;;;;22.80;13.48;;;;;;;;;;4296603;33;20075;-73
2023/05/24 03:25:19;;;;;;;24.10;13.82;;;;;;;;;;4284958;33;20108;-70
2023/05/24 03:27:46;;;;;;;24.08;12.95;;;;;;;;;;4296400;33;20815;-72
2023/05/24 03:30:12;;;;;;;23.80;13.27;;;;;;;;;;4295099;33;20473;-72
2023/05/24 03:32:40;;;;;;;24.40;13.98;;;;;;;;;;4296257;33;20127;-72
2023/05/24 03:35:06;;;;;;;24.48;14.05;;;;;;;;;;4296200;33;20054;-73
2023/05/24 03:37:33;;;;;;;22.98;12.82;;;;;;;;;;4294488;33;20094;-72
2023/05/24 03:39:59;;;;;;;18.42;13.65;;;;;;;;;;4296182;33;20053;-73
2023/05/24 03:42:29;;;;;;;33.92;15.48;;;;;;;;;;4308931;33;20459;-73
2023/05/24 03:44:55;;;;;;;27.90;15.25;;;;;;;;;;4313153;33;20484;-73
2023/05/24 03:47:21;;;;;;;20.83;14.55;;;;;;;;;;4307595;33;20078;-70
2023/05/24 03:49:47;;;;;;;25.33;13.25;;;;;;;;;;4310312;33;20037;-73
2023/05/24 03:52:13;;;;;;;22.15;14.85;;;;;;;;;;4309769;33;20070;-74
2023/05/24 03:54:39;;;;;;;24.10;15.25;;;;;;;;;;4303886;33;20386;-73
2023/05/24 03:57:06;;;;;;;24.67;14.77;;;;;;;;;;4302633;33;20052;-72
2023/05/24 03:59:32;;;;;;;24.48;16.00;;;;;;;;;;4310016;33;20529;-71
2023/05/24 04:01:58;;;;;;;28.45;16.50;;;;;;;;;;4297636;33;20123;-73
2023/05/24 04:04:24;;;;;;;30.75;16.23;;;;;;;;;;4296047;33;20407;-74
2023/05/24 04:06:57;;;;;;;23.15;16.15;;;;;;;;;;4291717;33;20058;-74
2023/05/24 04:09:23;;;;;;;30.98;16.17;;;;;;;;;;4286324;33;20068;-73
2023/05/24 04:11:50;;;;;;;33.33;16.40;;;;;;;;;;4289639;33;20037;-74
2023/05/24 04:14:16;;;;;;;29.48;17.73;;;;;;;;;;4294630;33;20037;-74
2023/05/24 04:16:43;;;;;;;21.70;16.30;;;;;;;;;;4294293;33;20110;-73
2023/05/24 04:19:10;;;;;;;23.65;16.12;;;;;;;;;;4307565;33;20467;-72
2023/05/24 04:21:36;;;;;;;25.52;17.12;;;;;;;;;;4284585;33;20108;-80
2023/05/24 04:24:03;;;;;;;23.80;16.27;;;;;;;;;;4266952;33;20042;-74
2023/05/24 04:26:30;;;;;;;25.92;17.27;;;;;;;;;;4267247;33;20451;-80
2023/05/24 04:28:57;;;;;;;26.73;16.75;;;;;;;;;;4267062;33;20433;-82
2023/05/24 04:31:25;;;;;;;22.25;16.33;;;;;;;;;;4266691;33;20454;-74
2023/05/24 04:33:51;;;;;;;26.02;16.35;;;;;;;;;;4266735;33;20480;-80
2023/05/24 04:36:18;;;;;;;24.98;16.08;;;;;;;;;;4266864;33;20049;-77
2023/05/24 04:38:45;;;;;;;32.22;16.77;;;;;;;;;;4278580;33;20083;-77
2023/05/24 04:41:12;;;;;;;26.83;16.00;;;;;;;;;;4278833;33;20038;-73
2023/05/24 04:43:38;;;;;;;28.87;15.07;;;;;;;;;;4280908;33;20888;-80
2023/05/24 04:46:04;;;;;;;24.12;15.30;;;;;;;;;;4281169;33;20054;-79
2023/05/24 04:48:32;;;;;;;24.08;14.98;;;;;;;;;;4281148;33;20059;-82
2023/05/24 04:50:59;;;;;;;20.52;13.93;;;;;;;;;;4280386;33;20060;-74
2023/05/24 04:53:25;;;;;;;16.67;13.18;;;;;;;;;;4278009;33;20038;-79
2023/05/24 04:55:52;;;;;;;21.35;13.35;;;;;;;;;;4281003;33;20171;-79
2023/05/24 04:58:18;;;;;;;21.80;14.55;;;;;;;;;;4251298;33;20056;-81
2023/05/24 05:00:44;;;;;;;21.05;13.98;;;;;;;;;;4250758;33;20068;-79
2023/05/24 05:03:10;;;;;;;26.92;13.85;;;;;;;;;;4250788;33;20058;-75
2023/05/24 05:05:36;;;;;;;24.60;13.65;;;;;;;;;;4233933;33;20062;-83
2023/05/24 05:08:02;;;;;;;25.27;13.95;;;;;;;;;;4238339;33;20446;-83
2023/05/24 05:10:29;;;;;;;22.92;12.23;;;;;;;;;;4236246;33;20042;-81
2023/05/24 05:12:55;;;;;;;22.80;12.70;;;;;;;;;;4238344;33;20073;-82
2023/05/24 05:15:22;;;;;;;18.52;12.60;;;;;;;;;;4236001;33;20078;-78
2023/05/24 05:17:49;;;;;;;19.80;11.15;;;;;;;;;;4249307;33;20755;-82
2023/05/24 05:20:15;;;;;;;20.60;13.32;;;;;;;;;;4251944;33;20075;-78
2023/05/24 05:22:47;;;;;;;22.00;12.80;;;;;;;;;;4237789;33;20058;-82
2023/05/24 05:25:14;;;;;;;19.58;12.27;;;;;;;;;;4234766;33;20479;-73
2023/05/24 05:27:40;;;;;;;19.80;13.07;;;;;;;;;;4238091;33;20043;-78
2023/05/24 05:30:07;;;;;;;18.20;12.15;;;;;;;;;;4242379;33;20053;-78
2023/05/24 05:32:34;;;;;;;17.27;11.07;;;;;;;;;;4252109;33;20115;-78
2023/05/24 05:35:00;;;;;;;20.52;12.25;;;;;;;;;;4247277;33;20043;-79
2023/05/24 05:37:28;;;;;;;17.08;10.93;;;;;;;;;;4235878;33;20050;-77
2023/05/24 05:39:55;;;;;;;18.17;11.05;;;;;;;;;;4237592;33;20447;-79
2023/05/24 05:42:21;;;;;;;23.45;12.85;;;;;;;;;;4237662;33;20051;-76
2023/05/24 05:44:47;;;;;;;19.87;11.60;;;;;;;;;;4237313;33;20076;-79
2023/05/24 05:47:13;;;;;;;17.60;11.57;;;;;;;;;;4236284;33;20080;-75
2023/05/24 05:49:39;;;;;;;16.48;11.60;;;;;;;;;;4246325;33;20071;-78
2023/05/24 05:52:05;;;;;;;23.30;10.90;;;;;;;;;;4250937;33;20093;-78
2023/05/24 05:54:32;;;;;;;13.70;10.70;;;;;;;;;;4274237;33;20061;-79
2023/05/24 05:56:58;;;;;;;18.87;10.45;;;;;;;;;;4279225;33;20072;-78
2023/05/24 05:59:24;;;;;;;17.30;11.45;;;;;;;;;;4277499;33;20041;-73
2023/05/24 06:01:51;;;;;;;13.70;9.38;;;;;;;;;;4278246;33;20083;-81
2023/05/24 06:04:17;;;;;;;13.95;9.40;;;;;;;;;;4293346;33;20049;-79
2023/05/24 06:06:50;;;;;;;17.37;9.52;;;;;;;;;;4264475;33;20099;-80
2023/05/24 06:09:17;;;;;;;23.15;9.93;;;;;;;;;;4265957;33;20053;-81
2023/05/24 06:11:43;;;;;;;14.10;9.80;;;;;;;;;;4264463;33;20237;-74
2023/05/24 06:14:11;;;;;;;18.90;10.80;;;;;;;;;;4265441;33;20071;-81
2023/05/24 06:16:40;;;;;;;16.50;9.82;;;;;;;;;;4265752;33;20071;-78
2023/05/24 06:19:07;;;;;;;14.77;10.95;;;;;;;;;;4265722;33;20115;-79
2023/05/24 06:21:32;;;;;;;21.58;10.13;;;;;;;;;;4292393;33;20077;-73
2023/05/24 06:24:01;;;;;;;14.25;9.88;;;;;;;;;;4292905;33;20053;-79
2023/05/24 06:26:27;;;;;;;15.95;9.90;;;;;;;;;;4294521;33;20033;-78
2023/05/24 06:28:53;;;;;;;16.73;9.00;;;;;;;;;;4294457;33;20113;-80
2023/05/24 06:31:20;;;;;;;25.37;10.75;;;;;;;;;;4294356;33;20050;-79
2023/05/24 06:33:46;;;;;;;14.50;9.10;;;;;;;;;;4292130;33;20495;-80
2023/05/24 06:36:12;;;;;;;15.30;10.45;;;;;;;;;;4293131;33;20048;-77
2023/05/24 06:38:38;;;;;;;10.30;8.45;;;;;;;;;;4318810;33;20841;-80
2023/05/24 06:41:05;;;;;;;22.73;9.95;;;;;;;;;;4323113;33;20033;-78
2023/05/24 06:43:32;;;;;;;13.85;8.90;;;;;;;;;;4322535;33;20045;-73
2023/05/24 06:45:58;;;;;;;10.75;9.10;;;;;;;;;;4321309;33;20067;-79
2023/05/24 06:48:25;;;;;;;11.88;8.63;;;;;;;;;;4323091;33;20080;-76
2023/05/24 06:50:51;;;;;;;16.92;9.05;;;;;;;;;;4323305;33;20033;-80
2023/05/24 06:53:18;;;;;;;12.63;9.88;;;;;;;;;;4295245;33;20087;-78
2023/05/24 06:55:44;;;;;;;13.73;9.07;;;;;;;;;;4295629;33;20063;-83
2023/05/24 06:58:13;;;;;;;14.87;9.13;;;;;;;;;;4295441;33;20781;-80
2023/05/24 07:00:41;;;;;;;13.02;8.82;;;;;;;;;;4280724;33;20053;-79
2023/05/24 07:03:08;;;;;;;14.07;7.07;;;;;;;;;;4268355;33;20038;-82
2023/05/24 07:05:34;;;;;;;14.90;8.10;;;;;;;;;;4282407;33;20057;-79
2023/05/24 07:08:00;;;;;;;16.48;9.07;;;;;;;;;;4280527;33;20063;-78
2023/05/24 07:10:26;;;;;;;10.63;8.00;;;;;;;;;;4282741;33;20409;-83
2023/05/24 07:12:52;;;;;;;12.32;8.07;;;;;;;;;;4283011;33;20057;-77
2023/05/24 07:15:19;;;;;;;16.20;8.90;;;;;;;;;;4282969;33;20037;-81
2023/05/24 07:17:45;;;;;;;11.63;8.65;;;;;;;;;;4282956;33;20061;-77
2023/05/24 07:20:12;;;;;;;10.00;8.10;;;;;;;;;;4285713;33;20105;-76
2023/05/24 07:22:40;;;;;;;13.65;8.50;;;;;;;;;;4293060;33;20062;-81
2023/05/24 07:25:06;;;;;;;19.55;8.90;;;;;;;;;;4277612;33;20079;-79
2023/05/24 07:27:32;;;;;;;11.90;9.38;;;;;;;;;;4289554;33;20050;-79
2023/05/24 07:29:58;;;;;;;9.27;7.45;;;;;;;;;;4291576;33;20067;-81
2023/05/24 07:32:24;;;;;;;12.80;8.88;;;;;;;;;;4293154;33;20168;-75
2023/05/24 07:34:50;;;;;;;12.68;7.93;;;;;;;;;;4289241;33;20112;-79
2023/05/24 07:37:17;;;;;;;15.57;8.10;;;;;;;;;;4295891;33;20074;-79
2023/05/24 07:39:43;;;;;;;12.05;9.05;;;;;;;;;;4328558;33;20382;-84
2023/05/24 07:42:10;;;;;;;14.77;9.18;;;;;;;;;;4326952;33;20044;-81
2023/05/24 07:44:36;;;;;;;14.82;8.90;;;;;;;;;;4324026;33;20048;-78
2023/05/24 07:47:02;;;;;;;18.75;8.75;;;;;;;;;;4326263;33;21022;-81
2023/05/24 07:49:28;;;;;;;16.67;9.15;;;;;;;;;;4326301;33;20044;-74
2023/05/24 07:51:58;;;;;;;13.10;7.95;;;;;;;;;;4325636;33;20438;-80
2023/05/24 07:54:24;;;;;;;10.93;7.95;;;;;;;;;;4325633;33;20492;-79
2023/05/24 07:56:50;;;;;;;11.60;7.80;;;;;;;;;;4322306;33;20418;-79
2023/05/24 07:59:17;;;;;;;10.82;8.05;;;;;;;;;;4310884;33;20045;-81
2023/05/24 08:01:46;;;;;;;11.10;7.95;;;;;;;;;;4310460;33;20427;-82
2023/05/24 08:04:12;;;;;;;10.32;8.02;;;;;;;;;;4310967;33;20078;-82
2023/05/24 08:06:38;;;;;;;16.48;8.32;;;;;;;;;;4309570;33;20056;-80
2023/05/24 08:09:06;;;;;;;15.27;8.27;;;;;;;;;;4308631;33;20036;-79
2023/05/24 08:11:32;;;;;;;14.15;8.88;;;;;;;;;;4310800;33;20540;-80
2023/05/24 08:13:58;;;;;;;13.43;8.55;;;;;;;;;;4310811;33;20052;-79
2023/05/24 08:16:25;;;;;;;18.12;8.77;;;;;;;;;;4310850;33;20053;-81
2023/05/24 08:18:53;;;;;;;13.07;8.02;;;;;;;;;;4309697;33;20059;-78
2023/05/24 08:21:20;;;;;;;14.35;8.35;;;;;;;;;;4307122;33;20054;-72
2023/05/24 08:23:46;;;;;;;17.50;9.65;;;;;;;;;;4310630;33;20552;-79
2023/05/24 08:26:12;;;;;;;19.77;8.52;;;;;;;;;;4309807;33;20062;-78
2023/05/24 08:28:38;;;;;;;12.07;7.30;;;;;;;;;;4310621;33;20439;-80
2023/05/24 08:31:05;;;;;;;11.65;8.02;;;;;;;;;;4306373;33;20064;-80
2023/05/24 08:33:32;;;;;;;24.75;7.80;;;;;;;;;;4310380;33;20044;-81
2023/05/24 08:35:58;;;;;;;9.75;7.30;;;;;;;;;;4310387;33;20049;-79
2023/05/24 08:38:24;;;;;;;17.05;7.75;;;;;;;;;;4310084;33;20049;-81
2023/05/24 08:40:51;;;;;;;12.63;7.43;;;;;;;;;;4310212;33;20056;-78
2023/05/24 08:43:18;;;;;;;14.10;8.27;;;;;;;;;;4306988;33;20051;-80
2023/05/24 08:45:44;;;;;;;16.30;8.07;;;;;;;;;;4310265;33;20170;-79
2023/05/24 08:48:12;;;;;;;14.20;7.35;;;;;;;;;;4310173;33;20074;-80
2023/05/24 08:50:38;;;;;;;15.10;7.78;;;;;;;;;;4310117;33;20444;-80
2023/05/24 08:53:05;;;;;;;10.43;8.18;;;;;;;;;;4297087;33;20856;-76
2023/05/24 08:55:32;;;;;;;10.07;7.35;;;;;;;;;;4294080;33;20395;-72
2023/05/24 08:57:58;;;;;;;12.20;7.32;;;;;;;;;;4295389;33;20041;-78
2023/05/24 09:00:25;;;;;;;12.45;7.22;;;;;;;;;;4294390;33;20100;-78
2023/05/24 09:02:52;;;;;;;9.80;7.07;;;;;;;;;;4303075;33;20065;-77
2023/05/24 09:05:20;;;;;;;14.00;7.37;;;;;;;;;;4301718;33;20460;-76
2023/05/24 09:07:47;;;;;;;15.98;7.53;;;;;;;;;;4304605;33;20048;-78
2023/05/24 09:10:14;;;;;;;12.82;7.57;;;;;;;;;;4305232;33;20096;-79
2023/05/24 09:12:44;;;;;;;13.27;6.72;;;;;;;;;;4303801;33;20165;-79
2023/05/24 09:15:10;;;;;;;11.38;6.47;;;;;;;;;;4302079;33;20066;-73
2023/05/24 09:17:37;;;;;;;7.12;6.37;;;;;;;;;;4304248;33;20052;-77
2023/05/24 09:20:05;;;;;;;18.45;6.93;;;;;;;;;;4303130;33;20056;-81
2023/05/24 09:22:33;;;;;;;11.30;6.80;;;;;;;;;;4302149;33;20045;-83
2023/05/24 09:25:00;;;;;;;12.43;7.62;;;;;;;;;;4291541;33;20431;-75
2023/05/24 09:27:26;;;;;;;9.35;6.00;;;;;;;;;;4293133;33;20048;-81
2023/05/24 09:29:54;;;;;;;10.75;6.68;;;;;;;;;;4294462;33;20067;-79
2023/05/24 09:32:22;;;;;;;7.43;6.12;;;;;;;;;;4277404;33;20034;-82
2023/05/24 09:34:52;;;;;;;14.13;7.12;;;;;;;;;;4278541;33;20549;-83
2023/05/24 09:37:20;;;;;;;14.15;6.97;;;;;;;;;;4277890;33;20584;-74
2023/05/24 09:39:47;;;;;;;11.18;6.82;;;;;;;;;;4280009;33;20079;-82
2023/05/24 09:42:23;;;;;;;10.50;6.40;;;;;;;;;;4279903;33;20239;-79
2023/05/24 09:44:59;;;;;;;9.32;6.43;;;;;;;;;;4278965;33;20075;-79
2023/05/24 09:47:29;;;;;;;7.57;5.50;;;;;;;;;;4262366;33;20034;-84
2023/05/24 09:49:55;;;;;;;12.48;7.00;;;;;;;;;;4264152;33;20042;-79
2023/05/24 09:52:21;;;;;;;10.77;6.55;;;;;;;;;;4265385;33;20033;-78
2023/05/24 09:54:48;;;;;;;12.93;6.85;;;;;;;;;;4263896;33;20045;-79
2023/05/24 09:57:15;;;;;;;12.82;7.03;;;;;;;;;;4249563;33;20072;-79
2023/05/24 09:59:43;;;;;;;14.38;6.53;;;;;;;;;;4249845;33;20667;-80
2023/05/24 10:02:10;;;;;;;14.23;6.30;;;;;;;;;;4250122;33;20070;-79
2023/05/24 10:04:39;;;;;;;17.17;6.90;;;;;;;;;;4263295;33;20067;-80
2023/05/24 10:07:06;;;;;;;13.05;6.30;;;;;;;;;;4263001;33;20049;-80
2023/05/24 10:09:33;;;;;;;9.55;6.72;;;;;;;;;;4265072;33;20062;-80
2023/05/24 10:12:03;;;;;;;8.68;6.25;;;;;;;;;;4265326;33;20033;-80
2023/05/24 10:14:31;;;;;;;7.47;5.65;;;;;;;;;;4265318;33;20072;-80
2023/05/24 10:16:57;;;;;;;11.27;6.15;;;;;;;;;;4270800;33;20520;-78
2023/05/24 10:19:24;;;;;;;9.23;6.25;;;;;;;;;;4282236;33;20583;-79
2023/05/24 10:21:51;;;;;;;10.30;6.10;;;;;;;;;;4286724;33;20034;-80
2023/05/24 10:24:18;;;;;;;8.88;6.00;;;;;;;;;;4284937;33;20399;-82
2023/05/24 10:26:47;;;;;;;8.57;6.25;;;;;;;;;;4280192;33;20407;-80
2023/05/24 10:29:20;;;;;;;12.77;6.20;;;;;;;;;;4277765;33;20089;-75
2023/05/24 10:31:47;;;;;;;9.05;6.45;;;;;;;;;;4280214;33;20034;-80
2023/05/24 10:34:13;;;;;;;11.07;6.62;;;;;;;;;;4275085;33;20132;-80
2023/05/24 10:36:39;;;;;;;7.87;5.95;;;;;;;;;;4278372;33;20391;-80
2023/05/24 10:39:07;;;;;;;10.60;6.37;;;;;;;;;;4278325;33;20042;-75
2023/05/24 10:41:40;;;;;;;11.52;5.53;;;;;;;;;;4288252;33;20775;-81
2023/05/24 10:44:11;;;;;;;8.60;5.55;;;;;;;;;;4293339;33;20048;-80
2023/05/24 10:46:56;;;;;;;9.32;6.15;;;;;;;;;;4294187;33;20440;-80
2023/05/24 10:49:23;;;;;;;7.80;5.00;;;;;;;;;;4294175;33;20458;-78
2023/05/24 10:51:49;;;;;;;12.40;7.22;;;;;;;;;;4294220;33;20047;-81
2023/05/24 10:54:16;;;;;;;14.75;6.10;;;;;;;;;;4292769;33;20341;-83
2023/05/24 10:56:43;;;;;;;9.95;6.40;;;;;;;;;;4290540;33;20045;-81
2023/05/24 10:59:21;;;;;;;8.68;6.50;;;;;;;;;;4294127;33;20053;-83
2023/05/24 11:01:53;;;;;;;10.57;6.22;;;;;;;;;;4432122;28;20075;-79
2023/05/24 11:04:19;;;;;;;11.23;5.72;;;;;;;;;;4298626;33;20464;-82
2023/05/24 11:06:56;;;;;;;6.62;5.40;;;;;;;;;;4296993;33;20041;-75
2023/05/24 11:09:23;;;;;;;9.32;6.57;;;;;;;;;;4303926;33;20148;-81
2023/05/24 11:11:59;;;;;;;9.80;6.40;;;;;;;;;;4302083;33;20049;-74
2023/05/24 11:14:26;;;;;;;7.85;5.47;;;;;;;;;;4303537;33;20050;-77
2023/05/24 11:16:52;;;;;;;8.52;5.05;;;;;;;;;;4303410;33;20066;-82
2023/05/24 11:19:44;;;;;;;7.75;5.72;;;;;;;;;;4311259;33;20313;-82
2023/05/24 11:22:12;;;;;;;16.00;11.57;;;;;;;;;;4312073;33;20120;-86
2023/05/24 11:24:39;;;;;;;11.18;5.45;;;;;;;;;;4309270;33;20120;-82
2023/05/24 11:27:05;;;;;;;10.15;5.87;;;;;;;;;;4305285;33;20082;-80
2023/05/24 11:29:39;;;;;;;7.62;4.82;;;;;;;;;;4304698;33;20363;-81
2023/05/24 11:32:06;;;;;;;6.57;4.65;;;;;;;;;;4303285;33;20041;-79
2023/05/24 11:34:33;;;;;;;8.02;5.18;;;;;;;;;;4271176;33;20489;-81
2023/05/24 11:36:59;;;;;;;14.02;5.28;;;;;;;;;;4272957;33;20107;-80
2023/05/24 11:39:32;;;;;;;9.02;4.75;;;;;;;;;;4270814;33;20042;-83
2023/05/24 11:41:59;;;;;;;6.97;5.03;;;;;;;;;;4272981;33;20106;-78
2023/05/24 11:44:26;;;;;;;6.97;5.78;;;;;;;;;;4276047;33;20049;-76
2023/05/24 11:46:56;;;;;;;13.48;6.10;;;;;;;;;;4282595;33;20042;-78
2023/05/24 11:49:22;;;;;;;11.23;7.18;;;;;;;;;;4283010;33;20100;-78
2023/05/24 11:51:48;;;;;;;10.32;5.97;;;;;;;;;;4284790;33;20041;-76
2023/05/24 11:54:17;;;;;;;7.90;5.80;;;;;;;;;;4282147;33;20058;-77
2023/05/24 11:56:43;;;;;;;7.35;5.35;;;;;;;;;;4283855;33;20087;-81
2023/05/24 11:59:14;;;;;;;12.73;5.40;;;;;;;;;;4284795;33;20053;-78
2023/05/24 12:01:40;;;;;;;11.20;5.97;;;;;;;;;;4284644;33;20050;-80
2023/05/24 12:04:10;;;;;;;8.15;6.22;;;;;;;;;;4276985;33;20057;-75
2023/05/24 12:06:37;;;;;;;9.25;6.68;;;;;;;;;;4272965;33;20298;-77
2023/05/24 12:09:07;;;;;;;9.70;6.78;;;;;;;;;;4276715;33;20050;-77
2023/05/24 12:11:36;;;;;;;13.73;6.72;;;;;;;;;;4256315;33;20054;-80
2023/05/24 12:14:04;;;;;;;6.68;5.72;;;;;;;;;;4246177;33;20084;-75
2023/05/24 12:16:31;;;;;;;10.75;6.50;;;;;;;;;;4255855;33;20049;-82
2023/05/24 12:18:58;;;;;;;14.98;7.35;;;;;;;;;;4252406;33;20070;-77
2023/05/24 12:21:25;;;;;;;16.08;6.05;;;;;;;;;;4251443;33;20373;-79
2023/05/24 12:23:51;;;;;;;11.75;7.37;;;;;;;;;;4265094;33;20121;-78
2023/05/24 12:26:21;;;;;;;14.10;8.27;;;;;;;;;;4264230;33;20809;-75
2023/05/24 12:28:52;;;;;;;10.60;7.32;;;;;;;;;;4266430;33;20367;-80
2023/05/24 12:31:19;;;;;;;9.00;7.35;;;;;;;;;;4264922;33;20095;-73
2023/05/24 12:33:46;;;;;;;11.27;7.65;;;;;;;;;;4266550;33;20064;-79
2023/05/24 12:36:12;;;;;;;12.18;6.87;;;;;;;;;;4274011;33;20915;-74
2023/05/24 12:38:38;;;;;;;10.10;7.20;;;;;;;;;;4265258;33;20107;-80
2023/05/24 12:41:04;;;;;;;12.85;7.78;;;;;;;;;;4266059;33;20452;-81
2023/05/24 12:43:31;;;;;;;12.07;7.07;;;;;;;;;;4278667;33;20503;-80
2023/05/24 12:45:57;;;;;;;13.43;8.63;;;;;;;;;;4277905;33;20067;-80
2023/05/24 12:48:23;;;;;;;11.93;7.07;;;;;;;;;;4276793;33;20045;-75
2023/05/24 12:50:50;;;;;;;14.48;8.27;;;;;;;;;;4280090;33;20115;-79
2023/05/24 12:53:18;;;;;;;12.45;9.02;;;;;;;;;;4279719;33;20041;-79
2023/05/24 12:55:44;;;;;;;12.37;9.45;;;;;;;;;;4274641;33;20371;-78
2023/05/24 12:58:15;;;;;;;14.02;10.00;;;;;;;;;;4279384;33;20033;-79
2023/05/24 13:00:43;;;;;;;10.63;8.50;;;;;;;;;;4271709;33;20046;-80
2023/05/24 13:03:09;;;;;;;13.30;8.60;;;;;;;;;;4286828;33;20089;-79
2023/05/24 13:05:35;;;;;;;24.25;10.38;;;;;;;;;;4289813;33;20046;-80
2023/05/24 13:08:02;;;;;;;18.37;8.82;;;;;;;;;;4290101;33;20063;-79
2023/05/24 13:10:28;;;;;;;14.18;8.95;;;;;;;;;;4286642;33;20092;-73
2023/05/24 13:12:55;;;;;;;9.90;7.97;;;;;;;;;;4288250;33;20049;-80
2023/05/24 13:15:22;;;;;;;16.83;9.20;;;;;;;;;;4288782;33;20050;-78
2023/05/24 13:17:49;;;;;;;15.90;9.40;;;;;;;;;;4290654;33;20076;-78
2023/05/24 13:20:22;;;;;;;11.63;8.35;;;;;;;;;;4286394;33;20059;-81
2023/05/24 13:22:50;;;;;;;15.55;8.60;;;;;;;;;;4288017;33;20058;-80
2023/05/24 13:25:15;;;;;;;13.32;8.80;;;;;;;;;;4286619;33;20045;-79
2023/05/24 13:27:42;;;;;;;13.23;9.70;;;;;;;;;;4287542;33;20049;-80
2023/05/24 13:30:08;;;;;;;14.27;9.15;;;;;;;;;;4264499;33;20038;-79
2023/05/24 13:32:34;;;;;;;10.35;8.82;;;;;;;;;;4262135;33;20330;-79
2023/05/24 13:35:00;;;;;;;15.23;8.75;;;;;;;;;;4265973;33;20068;-78
2023/05/24 13:37:27;;;;;;;13.98;8.45;;;;;;;;;;4265461;33;20065;-77
2023/05/24 13:39:54;;;;;;;15.13;8.63;;;;;;;;;;4265687;33;20022;-79
2023/05/24 13:42:20;;;;;;;14.00;8.98;;;;;;;;;;4261432;33;20054;-76
2023/05/24 13:44:47;;;;;;;13.90;8.60;;;;;;;;;;4262410;33;20839;-78
2023/05/24 13:47:15;;;;;;;10.95;8.20;;;;;;;;;;4236586;33;20132;-78
2023/05/24 13:49:41;;;;;;;9.75;7.07;;;;;;;;;;4236786;33;20055;-78
2023/05/24 13:52:08;;;;;;;15.18;7.57;;;;;;;;;;4236117;33;20072;-72
2023/05/24 13:54:34;;;;;;;10.43;8.27;;;;;;;;;;4235621;33;20106;-80
2023/05/24 13:57:01;;;;;;;11.70;7.57;;;;;;;;;;4237349;33;20054;-78
2023/05/24 13:59:27;;;;;;;11.23;7.68;;;;;;;;;;4244160;33;20045;-79
2023/05/24 14:01:53;;;;;;;11.18;7.45;;;;;;;;;;4253892;33;20076;-78
2023/05/24 14:04:20;;;;;;;12.82;6.97;;;;;;;;;;4250485;33;20046;-73
2023/05/24 14:06:46;;;;;;;18.55;6.47;;;;;;;;;;4250522;33;20060;-79
2023/05/24 14:09:14;;;;;;;14.45;7.78;;;;;;;;;;4251941;33;20046;-77
2023/05/24 14:11:40;;;;;;;17.80;8.65;;;;;;;;;;4253123;33;20076;-78
2023/05/24 14:14:06;;;;;;;8.40;6.65;;;;;;;;;;4255195;33;20072;-76
2023/05/24 14:16:32;;;;;;;12.48;6.32;;;;;;;;;;4264658;33;20054;-75
2023/05/24 14:18:59;;;;;;;10.63;7.60;;;;;;;;;;4288224;33;20092;-75
2023/05/24 14:21:25;;;;;;;14.40;7.72;;;;;;;;;;4281653;33;20208;-77
2023/05/24 14:23:51;;;;;;;9.98;6.97;;;;;;;;;;4279939;33;20043;-80
2023/05/24 14:26:18;;;;;;;8.88;6.55;;;;;;;;;;4279259;33;20455;-80
2023/05/24 14:28:44;;;;;;;10.15;6.68;;;;;;;;;;4278454;33;20038;-78
2023/05/24 14:31:11;;;;;;;14.18;6.75;;;;;;;;;;4278158;33;20149;-79
2023/05/24 14:33:37;;;;;;;19.37;6.12;;;;;;;;;;4279524;33;20071;-79
2023/05/24 14:36:04;;;;;;;13.38;7.28;;;;;;;;;;4279857;33;20053;-79
2023/05/24 14:38:30;;;;;;;9.38;6.40;;;;;;;;;;4277681;33;20075;-76
2023/05/24 14:40:57;;;;;;;15.27;8.50;;;;;;;;;;4265555;33;20084;-77
2023/05/24 14:43:23;;;;;;;8.93;7.05;;;;;;;;;;4266223;33;20052;-80
2023/05/24 14:45:49;;;;;;;9.40;6.62;;;;;;;;;;4265755;33;20085;-78
2023/05/24 14:48:16;;;;;;;18.77;6.75;;;;;;;;;;4277303;33;20046;-77
2023/05/24 14:50:42;;;;;;;11.38;7.30;;;;;;;;;;4278891;33;20063;-74
2023/05/24 14:53:10;;;;;;;9.18;7.07;;;;;;;;;;4268663;33;20513;-78
2023/05/24 14:55:37;;;;;;;12.07;7.20;;;;;;;;;;4259872;33;20053;-78
2023/05/24 14:58:03;;;;;;;10.75;6.37;;;;;;;;;;4262947;33;21452;-80
2023/05/24 15:00:30;;;;;;;8.63;7.40;;;;;;;;;;4261640;33;20409;-79
2023/05/24 15:02:56;;;;;;;6.65;5.95;;;;;;;;;;4255573;33;20862;-79
2023/05/24 15:05:23;;;;;;;14.93;8.20;;;;;;;;;;4248335;33;20287;-78
2023/05/24 15:07:49;;;;;;;16.77;10.98;;;;;;;;;;4252739;33;20466;-79
2023/05/24 15:10:15;;;;;;;9.27;7.50;;;;;;;;;;4250642;33;20460;-76
2023/05/24 15:12:41;;;;;;;8.55;6.53;;;;;;;;;;4266429;33;20106;-78
2023/05/24 15:15:07;;;;;;;8.18;6.40;;;;;;;;;;4271643;33;20061;-74
2023/05/24 15:17:34;;;;;;;6.40;5.70;;;;;;;;;;4274935;33;20045;-81
2023/05/24 15:20:00;;;;;;;6.25;5.62;;;;;;;;;;4259688;33;20471;-79
2023/05/24 15:22:26;;;;;;;13.55;8.75;;;;;;;;;;4263702;33;20512;-79
2023/05/24 15:24:53;;;;;;;7.43;6.53;;;;;;;;;;4259685;33;20168;-78
2023/05/24 15:27:19;;;;;;;15.60;5.90;;;;;;;;;;4256306;33;20614;-75
2023/05/24 15:29:45;;;;;;;9.90;7.00;;;;;;;;;;4261684;33;20046;-79
2023/05/24 15:32:11;;;;;;;9.77;6.30;;;;;;;;;;4264908;33;20054;-78
2023/05/24 15:34:38;;;;;;;13.93;6.05;;;;;;;;;;4251459;33;20212;-75
2023/05/24 15:37:04;;;;;;;10.85;6.60;;;;;;;;;;4250308;33;20133;-75
2023/05/24 15:39:32;;;;;;;9.88;6.43;;;;;;;;;;4258607;33;20054;-78
2023/05/24 15:41:58;;;;;;;15.27;6.43;;;;;;;;;;4265906;33;20107;-80
2023/05/24 15:44:24;;;;;;;8.93;6.03;;;;;;;;;;4268995;33;20122;-78
2023/05/24 15:46:50;;;;;;;7.35;5.28;;;;;;;;;;4265697;33;20052;-78
2023/05/24 15:49:17;;;;;;;8.38;6.18;;;;;;;;;;4270255;33;20428;-79
2023/05/24 15:51:43;;;;;;;6.53;5.78;;;;;;;;;;4273182;33;20076;-78
2023/05/24 15:54:09;;;;;;;14.52;6.95;;;;;;;;;;4284656;33;20101;-79
2023/05/24 15:56:35;;;;;;;8.02;7.03;;;;;;;;;;4285626;33;20212;-80
2023/05/24 15:59:01;;;;;;;11.10;7.50;;;;;;;;;;4282009;33;20059;-78
2023/05/24 16:01:28;;;;;;;7.40;6.03;;;;;;;;;;4279814;33;20080;-78
2023/05/24 16:03:54;;;;;;;12.48;6.97;;;;;;;;;;4280505;33;20053;-75
2023/05/24 16:06:20;;;;;;;20.23;6.87;;;;;;;;;;4278389;33;21066;-77
2023/05/24 16:08:48;;;;;;;6.60;6.00;;;;;;;;;;4252487;33;20042;-80
2023/05/24 16:11:14;;;;;;;10.25;6.07;;;;;;;;;;4229937;33;20117;-80
2023/05/24 16:13:41;;;;;;;12.00;6.62;;;;;;;;;;4244747;33;20412;-80
2023/05/24 16:16:07;;;;;;;7.60;6.53;;;;;;;;;;4243805;33;20101;-73
2023/05/24 16:18:40;;;;;;;10.43;7.18;;;;;;;;;;4229776;33;20066;-80
2023/05/24 16:21:06;;;;;;;13.27;7.43;;;;;;;;;;4230552;33;20764;-78
2023/05/24 16:23:32;;;;;;;12.32;6.95;;;;;;;;;;4227523;33;20554;-78
2023/05/24 16:25:58;;;;;;;11.45;7.30;;;;;;;;;;4231421;33;20043;-79
2023/05/24 16:28:24;;;;;;;15.32;8.05;;;;;;;;;;4226496;33;20397;-75